Time;durP1;ratioP1;P1;durP2;ratioP2;P2;SDS_P1;SDS_P2;PMS_P1;PMS_P2;Temp;Humidity;BMP_temperature;BMP_pressure;BME280_temperature;BME280_humidity;BME280_pressure;Samples;Min_cycle;Max_cycle;Signal;HPM_P1;HPM_P2
2022/10/09 00:01:42;;;;;;;6.27;2.60;;;6.40;99.90;;;7.30;100.00;99032.16;5010943;28;20965;-90
2022/10/09 00:04:11;;;;;;;2.93;2.47;;;6.30;99.90;;;7.36;100.00;99030.75;5008580;28;20497;-92
2022/10/09 00:06:42;;;;;;;8.40;2.00;;;6.40;99.90;;;7.24;100.00;99035.34;5009446;28;20510;-91
2022/10/09 00:09:11;;;;;;;5.73;2.40;;;6.20;99.90;;;7.14;100.00;99033.72;5004450;28;20491;-90
2022/10/09 00:11:40;;;;;;;4.23;2.20;;;6.10;99.90;;;7.16;100.00;99035.22;5010407;28;20456;-90
2022/10/09 00:14:09;;;;;;;6.30;2.77;;;6.20;99.90;;;7.18;100.00;99038.50;5009914;28;20456;-90
2022/10/09 00:16:39;;;;;;;5.47;2.80;;;6.20;99.90;;;7.19;100.00;99037.53;5010784;28;20475;-91
2022/10/09 00:19:07;;;;;;;3.77;2.47;;;6.30;99.90;;;7.18;100.00;99033.31;5009517;28;20483;-91
2022/10/09 00:21:36;;;;;;;7.07;3.07;;;6.30;99.90;;;7.14;100.00;99026.75;5008442;28;20547;-91
2022/10/09 00:24:07;;;;;;;6.97;2.13;;;6.20;99.90;;;7.14;100.00;99031.13;5009507;28;20477;-90
2022/10/09 00:26:36;;;;;;;5.83;2.47;;;6.20;99.90;;;7.13;100.00;99040.69;5008615;28;20451;-91
2022/10/09 00:29:05;;;;;;;4.40;3.07;;;6.20;99.90;;;7.12;100.00;99033.84;5006140;28;20530;-90
2022/10/09 00:31:35;;;;;;;11.90;2.70;;;6.10;99.90;;;7.11;100.00;99029.63;5009366;28;20456;-91
2022/10/09 00:34:04;;;;;;;18.43;2.63;;;6.10;99.90;;;7.09;100.00;99028.94;5007013;28;20442;-90
2022/10/09 00:36:33;;;;;;;5.73;2.27;;;6.10;99.90;;;7.04;100.00;99031.16;5004322;28;20455;-92
2022/10/09 00:39:01;;;;;;;5.87;2.30;;;6.20;99.90;;;7.05;100.00;99032.78;5007107;28;20538;-91
2022/10/09 00:41:33;;;;;;;5.13;2.50;;;6.10;99.90;;;7.06;100.00;99037.03;5007403;28;20536;-90
2022/10/09 00:44:23;;;;;;;5.03;2.50;;;6.10;99.90;;;7.03;100.00;99029.50;5014590;28;20538;-91
2022/10/09 00:46:53;;;;;;;7.20;2.80;;;6.10;99.90;;;7.00;100.00;99022.81;5005085;28;20471;-92
2022/10/09 00:49:28;;;;;;;7.43;2.40;;;6.00;99.90;;;6.91;100.00;99034.03;5008659;28;20492;-93
2022/10/09 00:52:03;;;;;;;3.17;2.50;;;6.00;99.90;;;6.92;100.00;99024.44;5009580;28;20968;-91
2022/10/09 00:54:36;;;;;;;2.73;2.23;;;6.00;99.90;;;6.94;100.00;99023.34;5011571;28;20479;-90
2022/10/09 00:57:08;;;;;;;6.03;2.43;;;6.00;99.90;;;6.87;100.00;99024.88;5010071;28;20463;-91
2022/10/09 00:59:38;;;;;;;7.33;2.77;;;5.90;99.90;;;6.93;100.00;99023.50;5007013;28;20530;-91
2022/10/09 01:02:07;;;;;;;5.23;2.03;;;6.00;99.90;;;6.91;100.00;99017.59;5007024;28;20542;-90
2022/10/09 01:04:37;;;;;;;5.53;1.93;;;6.00;99.90;;;6.90;100.00;99013.38;5009698;28;20537;-90
2022/10/09 01:07:29;;;;;;;10.43;2.20;;;6.00;99.90;;;6.78;100.00;99015.31;5010724;28;20458;-91
2022/10/09 01:10:08;;;;;;;3.30;2.20;;;6.00;99.90;;;6.73;100.00;99025.31;5008861;28;20494;-91
2022/10/09 01:12:50;;;;;;;4.13;2.07;;;5.90;99.90;;;6.70;100.00;99012.56;5003220;28;20463;-90
2022/10/09 01:15:28;;;;;;;4.90;2.23;;;5.80;99.90;;;6.68;100.00;99019.69;5008144;28;20755;-91
2022/10/09 01:18:07;;;;;;;4.50;2.50;;;5.80;99.90;;;6.72;100.00;99022.84;5010442;28;20471;-90
2022/10/09 01:20:47;;;;;;;5.57;2.33;;;5.80;99.90;;;6.71;100.00;99010.81;5011819;28;20493;-91
2022/10/09 01:23:42;;;;;;;2.30;2.10;;;5.80;99.90;;;6.68;100.00;99014.50;5013500;28;21023;-91
2022/10/09 01:26:41;;;;;;;6.87;2.53;;;5.70;99.90;;;6.61;100.00;99015.19;5008748;28;20562;-91
2022/10/09 01:29:14;;;;;;;2.20;2.00;;;5.70;99.90;;;6.63;100.00;99013.28;5010785;28;20554;-90
2022/10/09 01:31:48;;;;;;;6.07;2.20;;;5.70;99.90;;;6.62;100.00;99014.25;5012694;28;20582;-91
2022/10/09 01:34:21;;;;;;;2.30;2.00;;;5.70;99.90;;;6.62;100.00;99004.66;5013338;28;20462;-90
2022/10/09 01:36:52;;;;;;;3.00;1.60;;;5.70;99.90;;;6.64;100.00;99001.91;5013275;28;20958;-91
2022/10/09 01:39:24;;;;;;;5.97;2.00;;;5.80;99.90;;;6.54;100.00;99002.75;5007942;28;20505;-91
2022/10/09 01:41:54;;;;;;;4.23;1.90;;;5.60;99.90;;;6.44;100.00;99001.13;5009402;28;20505;-90
2022/10/09 01:44:28;;;;;;;3.50;1.87;;;5.60;99.90;;;6.42;100.00;99005.66;5005809;28;20470;-90
2022/10/09 01:46:58;;;;;;;2.77;1.60;;;5.60;99.90;;;6.49;100.00;98991.94;5011208;28;20497;-91
2022/10/09 01:49:42;;;;;;;9.27;2.23;;;5.60;99.90;;;6.38;100.00;99001.69;5011030;28;20950;-90
2022/10/09 01:52:26;;;;;;;3.20;1.73;;;5.50;99.90;;;6.36;100.00;98999.19;5006512;28;20471;-91
2022/10/09 01:55:16;;;;;;;2.10;1.77;;;5.50;99.90;;;6.34;100.00;98995.09;5010155;28;20501;-91
2022/10/09 01:57:52;;;;;;;2.50;1.67;;;5.50;99.90;;;6.23;100.00;98990.88;5014159;28;20502;-91
2022/10/09 02:00:24;;;;;;;3.43;2.10;;;5.50;99.90;;;6.18;100.00;98989.66;5010759;28;20438;-91
2022/10/09 02:02:57;;;;;;;6.50;1.87;;;5.40;99.90;;;6.19;100.00;98986.06;5012557;28;20458;-90
2022/10/09 02:05:30;;;;;;;3.73;2.00;;;5.40;99.90;;;6.21;100.00;98979.81;5012027;28;20505;-91
2022/10/09 02:08:01;;;;;;;4.87;1.83;;;5.40;99.90;;;6.24;100.00;98982.13;5009480;28;20465;-91
2022/10/09 02:10:34;;;;;;;6.90;2.10;;;5.30;99.90;;;6.22;100.00;98976.22;5011127;28;21019;-90
2022/10/09 02:13:04;;;;;;;5.97;2.20;;;5.30;99.90;;;6.04;100.00;98976.09;5010964;28;20461;-92
2022/10/09 02:15:46;;;;;;;2.50;2.00;;;5.00;99.90;;;6.07;100.00;98973.22;5012652;28;20456;-92
2022/10/09 02:18:23;;;;;;;2.73;1.60;;;5.10;99.90;;;6.11;100.00;98971.16;5011126;28;20451;-93
2022/10/09 02:21:00;;;;;;;2.73;1.97;;;5.10;99.90;;;6.09;100.00;98967.91;5010672;28;20466;-89
2022/10/09 02:23:31;;;;;;;3.73;1.70;;;5.10;99.90;;;6.16;100.00;98971.59;5005881;28;20572;-90
2022/10/09 02:26:00;;;;;;;2.60;1.57;;;5.20;99.90;;;6.05;100.00;98963.94;5009489;28;20486;-90
2022/10/09 02:28:29;;;;;;;3.60;2.10;;;5.10;99.90;;;6.03;100.00;98960.66;5009765;28;20525;-91
2022/10/09 02:31:11;;;;;;;5.30;2.00;;;5.10;99.90;;;6.04;100.00;98963.09;5006212;28;20495;-89
2022/10/09 02:33:41;;;;;;;8.10;2.10;;;5.10;99.90;;;6.07;100.00;98962.81;5004658;28;20463;-90
2022/10/09 02:36:10;;;;;;;3.23;1.97;;;5.10;99.90;;;6.04;100.00;98954.50;5008866;28;20455;-93
2022/10/09 02:38:39;;;;;;;3.00;2.60;;;5.10;99.90;;;6.06;100.00;98955.19;5009184;28;20559;-91
2022/10/09 02:41:08;;;;;;;4.60;1.83;;;5.10;99.90;;;6.00;100.00;98953.16;5013336;28;20526;-92
2022/10/09 02:43:38;;;;;;;2.53;1.93;;;5.10;99.90;;;5.96;100.00;98954.38;5010697;28;20470;-89
2022/10/09 02:46:08;;;;;;;2.83;1.97;;;5.00;99.90;;;5.94;100.00;98951.06;5014193;28;21057;-92
2022/10/09 02:48:39;;;;;;;4.50;2.00;;;4.90;99.90;;;5.89;100.00;98950.69;5010353;28;20452;-91
2022/10/09 02:51:08;;;;;;;2.73;1.87;;;4.90;99.90;;;5.88;100.00;98951.63;5006180;28;21017;-91
2022/10/09 02:53:37;;;;;;;2.17;1.97;;;4.90;99.90;;;5.83;100.00;98938.22;5010059;28;20474;-91
2022/10/09 02:56:07;;;;;;;2.50;1.57;;;4.80;99.90;;;5.84;100.00;98950.22;5007708;28;20469;-90
2022/10/09 02:58:36;;;;;;;2.13;1.70;;;4.90;99.90;;;5.87;100.00;98949.97;5008911;28;20555;-91
2022/10/09 03:01:07;;;;;;;11.03;1.90;;;4.90;99.90;;;5.87;100.00;98939.59;5008020;28;21032;-89
2022/10/09 03:03:36;;;;;;;13.47;1.90;;;4.90;99.90;;;5.83;100.00;98943.41;5012391;28;20815;-91
2022/10/09 03:06:10;;;;;;;2.50;1.87;;;4.80;99.90;;;5.82;100.00;98942.56;5006933;28;20964;-91
2022/10/09 03:08:52;;;;;;;2.37;2.10;;;4.90;99.90;;;5.85;100.00;98946.66;5010956;28;20454;-91
2022/10/09 03:11:24;;;;;;;2.33;1.87;;;4.90;99.90;;;5.81;100.00;98935.75;5010294;28;20531;-90
2022/10/09 03:13:55;;;;;;;4.40;2.33;;;4.80;99.90;;;5.76;100.00;98937.13;5007523;28;20675;-92
2022/10/09 03:16:27;;;;;;;13.67;2.03;;;4.80;99.90;;;5.68;100.00;98936.94;4993692;28;20471;-89
2022/10/09 03:18:57;;;;;;;1.90;1.70;;;4.80;99.90;;;5.71;100.00;98936.69;5009022;28;20493;-90
2022/10/09 03:21:28;;;;;;;5.30;2.07;;;4.80;99.90;;;5.72;100.00;98938.31;5006234;28;20485;-92
2022/10/09 03:23:57;;;;;;;5.40;1.90;;;4.80;99.90;;;5.70;100.00;98938.44;5007587;28;20909;-92
2022/10/09 03:26:28;;;;;;;2.40;1.93;;;4.80;99.90;;;5.70;100.00;98932.44;5011689;28;20505;-90
2022/10/09 03:28:57;;;;;;;3.50;2.30;;;4.70;99.90;;;5.72;100.00;98935.75;5010012;28;20969;-91
2022/10/09 03:31:27;;;;;;;2.73;2.47;;;4.70;99.90;;;5.70;100.00;98932.44;5010173;28;20520;-93
2022/10/09 03:34:16;;;;;;;1.90;1.80;;;4.70;99.90;;;5.65;100.00;98929.44;5010897;28;20645;-92
2022/10/09 03:36:45;;;;;;;2.10;1.87;;;4.60;99.90;;;5.57;100.00;98933.53;5010827;28;20545;-91
2022/10/09 03:39:14;;;;;;;3.87;1.67;;;4.70;99.90;;;5.58;100.00;98931.75;5009671;28;20519;-92
2022/10/09 03:41:44;;;;;;;3.20;1.63;;;4.60;99.90;;;5.63;100.00;98936.53;5009882;28;20503;-91
2022/10/09 03:44:13;;;;;;;4.47;1.80;;;4.70;99.90;;;5.54;100.00;98930.38;4992924;28;20551;-90
2022/10/09 03:46:43;;;;;;;3.13;1.90;;;4.60;99.90;;;5.42;100.00;98931.41;5009184;28;20467;-90
2022/10/09 03:49:12;;;;;;;4.13;2.07;;;4.50;99.90;;;5.33;100.00;98940.00;5009975;28;21043;-91
2022/10/09 03:51:41;;;;;;;4.90;2.47;;;4.40;99.90;;;5.35;100.00;98928.53;5010263;28;20530;-91
2022/10/09 03:54:11;;;;;;;4.83;1.90;;;4.40;99.90;;;5.41;100.00;98933.22;5008975;28;20465;-92
2022/10/09 03:56:40;;;;;;;4.73;1.50;;;4.50;99.90;;;5.39;100.00;98929.94;5007825;28;20550;-91
2022/10/09 03:59:10;;;;;;;5.30;1.70;;;4.50;99.90;;;5.32;100.00;98939.19;5007942;28;20547;-90
2022/10/09 04:01:39;;;;;;;2.10;1.70;;;4.50;99.90;;;5.35;100.00;98930.31;5009461;28;20470;-92
2022/10/09 04:04:10;;;;;;;3.00;2.03;;;4.50;99.90;;;5.35;100.00;98933.72;5007706;28;20540;-92
2022/10/09 04:06:39;;;;;;;4.20;1.60;;;4.50;99.90;;;5.37;100.00;98931.00;5007281;28;20458;-91
2022/10/09 04:09:09;;;;;;;6.53;2.03;;;4.50;99.90;;;5.32;100.00;98931.41;5009028;28;20543;-91
2022/10/09 04:11:39;;;;;;;5.43;2.13;;;4.30;99.90;;;5.26;100.00;98939.72;5004878;28;20527;-90
2022/10/09 04:14:09;;;;;;;3.50;1.90;;;4.30;99.90;;;5.31;100.00;98926.38;5006272;28;20887;-91
2022/10/09 04:16:38;;;;;;;2.83;1.70;;;4.50;99.90;;;5.33;100.00;98924.44;5008330;28;20492;-91
2022/10/09 04:19:07;;;;;;;3.90;1.63;;;4.50;99.90;;;5.30;100.00;98930.72;5007480;28;20487;-91
2022/10/09 04:21:37;;;;;;;1.80;1.70;;;4.40;99.90;;;5.32;100.00;98939.19;5009308;28;20459;-91
2022/10/09 04:24:07;;;;;;;5.70;2.00;;;4.30;99.90;;;5.36;100.00;98925.00;5006937;28;21061;-92
2022/10/09 04:26:36;;;;;;;4.10;1.90;;;4.40;99.90;;;5.32;100.00;98934.00;5008615;28;20563;-89
2022/10/09 04:29:07;;;;;;;2.77;1.63;;;4.30;99.90;;;5.33;100.00;98933.06;5005468;28;20464;-92
2022/10/09 04:31:36;;;;;;;3.10;1.97;;;4.40;99.90;;;5.25;100.00;98927.69;5009105;28;20617;-92
2022/10/09 04:34:06;;;;;;;2.43;2.07;;;4.20;99.90;;;5.12;100.00;98934.06;5002435;28;20474;-86
2022/10/09 04:36:37;;;;;;;2.30;1.80;;;4.20;99.90;;;5.19;100.00;98930.00;5007762;28;20453;-90
2022/10/09 04:39:07;;;;;;;1.73;1.60;;;4.30;99.90;;;5.16;100.00;98933.69;5014772;28;20515;-93
2022/10/09 04:41:37;;;;;;;1.60;1.50;;;4.30;99.90;;;5.17;100.00;98934.50;5012215;28;20456;-91
2022/10/09 04:44:07;;;;;;;2.57;1.97;;;4.20;99.90;;;5.16;100.00;98923.31;5019484;28;20883;-92
2022/10/09 04:46:36;;;;;;;4.73;1.87;;;4.20;99.90;;;5.09;100.00;98927.38;5019602;28;20453;-93
2022/10/09 04:49:07;;;;;;;5.70;1.70;;;4.00;99.90;;;5.10;100.00;98931.63;5026834;28;20532;-92
2022/10/09 04:51:37;;;;;;;13.07;2.23;;;4.10;99.90;;;5.07;100.00;98931.84;5033673;28;20487;-91
2022/10/09 04:54:06;;;;;;;3.40;1.77;;;4.00;99.90;;;5.06;100.00;98932.81;5015758;28;20450;-91
2022/10/09 04:56:37;;;;;;;3.53;2.13;;;4.10;99.90;;;4.92;100.00;98928.81;5012040;28;20499;-92
2022/10/09 04:59:07;;;;;;;2.30;1.77;;;4.00;99.90;;;4.98;100.00;98924.88;5016950;28;20523;-92
2022/10/09 05:01:36;;;;;;;1.53;1.43;;;4.10;99.90;;;4.99;100.00;98926.53;5010712;28;20974;-88
2022/10/09 05:04:06;;;;;;;2.07;1.87;;;4.10;99.90;;;5.00;100.00;98923.78;5009976;28;20546;-92
2022/10/09 05:06:39;;;;;;;9.00;1.90;;;4.10;99.90;;;5.04;100.00;98929.53;5008205;28;20478;-82
2022/10/09 05:09:10;;;;;;;1.90;1.70;;;4.10;99.90;;;5.02;100.00;98928.84;5005640;28;20561;-83
2022/10/09 05:11:39;;;;;;;2.77;1.57;;;4.00;99.90;;;4.92;100.00;98930.56;5007462;28;20955;-83
2022/10/09 05:14:10;;;;;;;1.60;1.50;;;4.10;99.90;;;4.93;100.00;98930.44;5004509;28;20462;-83
2022/10/09 05:16:41;;;;;;;2.00;1.67;;;4.10;99.90;;;4.96;100.00;98931.97;5009872;28;20522;-83
2022/10/09 05:19:33;;;;;;;1.93;1.70;;;4.10;99.90;;;4.91;100.00;98928.94;5005279;28;20557;-83
2022/10/09 05:22:04;;;;;;;4.13;1.90;;;4.00;99.90;;;4.91;100.00;98928.94;5001766;28;20448;-82
2022/10/09 05:24:35;;;;;;;1.83;1.40;;;4.10;99.90;;;4.83;100.00;98931.34;5006340;28;20448;-82
2022/10/09 05:27:05;;;;;;;2.00;1.70;;;3.90;99.90;;;4.87;100.00;98928.38;5008795;28;20571;-82
2022/10/09 05:29:34;;;;;;;7.97;2.17;;;4.00;99.90;;;4.92;100.00;98939.19;5002988;28;20468;-82
2022/10/09 05:32:03;;;;;;;3.00;1.93;;;4.00;99.90;;;4.88;100.00;98931.78;5004044;28;20518;-82
2022/10/09 05:34:35;;;;;;;3.27;1.63;;;4.00;99.90;;;4.86;100.00;98942.25;5003332;28;20951;-83
2022/10/09 05:37:07;;;;;;;3.33;1.70;;;4.00;99.90;;;4.85;100.00;98935.47;5003770;28;20519;-82
2022/10/09 05:39:37;;;;;;;1.90;1.80;;;3.90;99.90;;;4.86;100.00;98931.09;5002174;28;20463;-82
2022/10/09 05:42:06;;;;;;;1.70;1.60;;;4.00;99.90;;;4.89;100.00;98933.44;5002525;28;20565;-82
2022/10/09 05:44:34;;;;;;;1.73;1.50;;;4.00;99.90;;;4.89;100.00;98936.03;5004641;28;20551;-82
2022/10/09 05:47:06;;;;;;;2.00;1.63;;;3.90;99.90;;;4.88;100.00;98939.56;5001842;28;20553;-82
2022/10/09 05:49:37;;;;;;;5.40;1.83;;;3.90;99.90;;;4.80;100.00;98942.78;5005342;28;20467;-82
2022/10/09 05:52:08;;;;;;;2.40;1.67;;;3.80;99.90;;;4.81;100.00;98941.03;5003598;28;20578;-81
2022/10/09 05:54:37;;;;;;;1.50;1.40;;;3.90;99.90;;;4.76;100.00;98940.56;5003464;28;20546;-81
2022/10/09 05:57:06;;;;;;;3.83;2.00;;;3.80;99.90;;;4.77;100.00;98937.03;5004402;28;20558;-83
2022/10/09 05:59:34;;;;;;;2.17;1.53;;;3.90;99.90;;;4.79;100.00;98937.75;5006337;28;20491;-83
2022/10/09 06:02:03;;;;;;;3.70;1.70;;;3.90;99.90;;;4.78;100.00;98934.34;5002705;28;21021;-83
2022/10/09 06:04:33;;;;;;;3.40;1.80;;;3.90;99.90;;;4.79;100.00;98940.34;5001985;28;20471;-83
2022/10/09 06:07:03;;;;;;;2.30;1.80;;;3.90;99.90;;;4.82;100.00;98940.06;5000796;28;20550;-83
2022/10/09 06:09:33;;;;;;;3.17;2.00;;;3.90;99.90;;;4.72;100.00;98929.63;5002104;28;20463;-83
2022/10/09 06:12:04;;;;;;;2.90;1.70;;;3.90;99.90;;;4.68;100.00;98928.28;5000607;28;20495;-83
2022/10/09 06:14:32;;;;;;;1.70;1.57;;;3.80;99.90;;;4.65;100.00;98922.53;5002580;28;20507;-83
2022/10/09 06:17:01;;;;;;;3.47;1.90;;;3.90;99.90;;;4.61;100.00;98921.16;5005092;28;20526;-82
2022/10/09 06:19:30;;;;;;;3.10;1.63;;;3.90;99.90;;;4.68;100.00;98925.69;5003426;28;20597;-84
2022/10/09 06:21:58;;;;;;;2.33;1.83;;;3.90;99.90;;;4.70;100.00;98925.53;4998355;28;20581;-82
2022/10/09 06:24:27;;;;;;;1.70;1.60;;;3.90;99.90;;;4.73;100.00;98930.47;5004805;28;20463;-82
2022/10/09 06:27:00;;;;;;;2.33;2.00;;;3.90;99.90;;;4.72;100.00;98928.84;5003706;28;20559;-82
2022/10/09 06:29:33;;;;;;;1.70;1.60;;;3.90;99.90;;;4.67;100.00;98925.81;5002828;28;20525;-81
2022/10/09 06:32:03;;;;;;;2.43;2.23;;;3.70;99.90;;;4.74;100.00;98929.53;5000496;28;20500;-82
2022/10/09 06:34:32;;;;;;;2.70;2.10;;;3.80;99.90;;;4.75;100.00;98933.78;5000527;28;20482;-82
2022/10/09 06:37:00;;;;;;;4.40;1.97;;;3.80;99.90;;;4.76;100.00;98927.63;5003013;28;20879;-82
2022/10/09 06:39:29;;;;;;;1.60;1.50;;;3.80;99.90;;;4.70;100.00;98930.72;5001796;28;20510;-81
2022/10/09 06:42:02;;;;;;;8.83;2.07;;;3.70;99.90;;;4.72;100.00;98931.44;5002058;28;20514;-81
2022/10/09 06:44:32;;;;;;;6.87;1.90;;;3.70;99.90;;;4.75;100.00;98937.19;5002750;28;20548;-81
2022/10/09 06:47:01;;;;;;;6.93;1.67;;;3.70;99.90;;;4.81;100.00;98928.06;5003226;28;20476;-81
2022/10/09 06:49:30;;;;;;;5.07;1.87;;;3.90;99.90;;;4.86;100.00;98931.09;5002571;28;20517;-82
2022/10/09 06:51:59;;;;;;;1.60;1.50;;;3.90;99.90;;;4.88;100.00;98929.19;5002444;28;20531;-82
2022/10/09 06:54:28;;;;;;;4.63;1.60;;;4.00;99.90;;;4.83;100.00;98937.34;5001562;28;21059;-82
2022/10/09 06:56:57;;;;;;;1.73;1.63;;;3.90;99.90;;;4.88;100.00;98934.38;5002172;28;20467;-82
2022/10/09 06:59:27;;;;;;;3.00;1.87;;;3.90;99.90;;;4.83;100.00;98932.16;5000627;28;20496;-82
2022/10/09 07:01:56;;;;;;;3.23;1.70;;;3.80;99.90;;;4.82;100.00;98929.72;5001117;28;20569;-82
2022/10/09 07:04:26;;;;;;;3.90;2.13;;;3.90;99.90;;;4.86;100.00;98936.28;5005720;28;20542;-82
2022/10/09 07:06:55;;;;;;;3.00;1.73;;;3.90;99.90;;;4.92;100.00;98926.22;5002028;28;20465;-82
2022/10/09 07:09:24;;;;;;;3.50;2.00;;;4.00;99.90;;;4.93;100.00;98927.00;5004687;28;20838;-82
2022/10/09 07:11:53;;;;;;;2.50;2.00;;;4.00;99.90;;;4.90;100.00;98927.28;5002159;28;20529;-83
2022/10/09 07:14:22;;;;;;;2.53;1.73;;;3.90;99.90;;;5.01;100.00;98924.59;5001890;28;20504;-83
2022/10/09 07:16:53;;;;;;;3.40;1.97;;;4.10;99.90;;;4.98;100.00;98924.88;5000404;28;23292;-82
2022/10/09 07:19:22;;;;;;;5.60;2.20;;;4.10;99.90;;;5.00;100.00;98925.53;5002402;28;20597;-82
2022/10/09 07:21:52;;;;;;;3.13;2.13;;;4.10;99.90;;;5.00;100.00;98920.38;4999371;28;20476;-83
2022/10/09 07:24:24;;;;;;;3.47;2.40;;;4.10;99.90;;;5.03;100.00;98920.13;5002719;28;20471;-82
2022/10/09 07:26:54;;;;;;;2.13;1.90;;;4.10;99.90;;;5.11;100.00;98915.09;5001058;28;21035;-83
2022/10/09 07:29:23;;;;;;;5.40;2.20;;;4.20;99.90;;;5.14;100.00;98920.00;5001108;28;20555;-84
2022/10/09 07:31:55;;;;;;;3.10;2.33;;;4.20;99.90;;;5.16;100.00;98923.31;5002670;28;20902;-82
2022/10/09 07:34:24;;;;;;;4.13;1.80;;;4.30;99.90;;;5.19;100.00;98924.81;5001801;28;20619;-83
2022/10/09 07:36:55;;;;;;;5.07;2.00;;;4.30;99.90;;;5.20;100.00;98924.69;5001153;28;20466;-83
2022/10/09 07:39:23;;;;;;;2.30;2.10;;;4.30;99.90;;;5.24;100.00;98925.25;5001774;28;20464;-83
2022/10/09 07:41:52;;;;;;;2.63;2.03;;;4.40;99.90;;;5.30;100.00;98922.94;5001672;28;20467;-82
2022/10/09 07:44:21;;;;;;;2.60;1.97;;;4.40;99.90;;;5.36;100.00;98922.41;5001411;28;20472;-84
2022/10/09 07:46:50;;;;;;;4.70;3.47;;;4.50;99.90;;;5.39;100.00;98921.31;4998723;28;20552;-83
2022/10/09 07:49:21;;;;;;;2.33;2.13;;;4.50;99.90;;;5.43;100.00;98917.50;5002017;28;20565;-83
2022/10/09 07:51:50;;;;;;;3.43;2.20;;;4.60;99.90;;;5.49;100.00;98920.38;4999728;28;20465;-82
2022/10/09 07:54:19;;;;;;;2.70;2.37;;;4.70;99.90;;;5.54;100.00;98915.63;4998598;28;20518;-83
2022/10/09 07:56:48;;;;;;;3.27;2.30;;;4.70;99.90;;;5.59;100.00;98910.84;5001115;28;20474;-84
2022/10/09 07:59:17;;;;;;;7.33;4.23;;;4.80;99.90;;;5.63;100.00;98906.22;5001382;28;20512;-83
2022/10/09 08:01:46;;;;;;;4.80;2.63;;;4.80;99.90;;;5.68;100.00;98911.84;5004321;28;20540;-82
2022/10/09 08:04:14;;;;;;;5.00;2.80;;;4.90;99.90;;;5.73;100.00;98907.03;5000451;28;20466;-83
2022/10/09 08:06:44;;;;;;;38.97;16.23;;;4.90;99.90;;;5.79;100.00;98911.72;4999740;28;21011;-83
2022/10/09 08:09:14;;;;;;;7.50;3.63;;;5.00;99.90;;;5.84;100.00;98911.28;5000128;28;20493;-83
2022/10/09 08:11:43;;;;;;;8.73;2.30;;;5.10;99.90;;;5.90;100.00;98908.19;4998144;28;20455;-82
2022/10/09 08:14:14;;;;;;;2.60;2.40;;;5.10;99.90;;;5.96;100.00;98905.88;4997805;28;20526;-82
2022/10/09 08:16:47;;;;;;;6.30;2.43;;;5.20;99.90;;;6.01;100.00;98906.28;4999746;28;20463;-82
2022/10/09 08:19:16;;;;;;;4.30;3.00;;;5.20;99.90;;;6.09;100.00;98895.22;4999912;28;20482;-82
2022/10/09 08:21:46;;;;;;;7.03;2.97;;;5.40;99.90;;;6.15;100.00;98897.25;4998958;28;20497;-83
2022/10/09 08:24:14;;;;;;;3.40;2.27;;;5.40;99.90;;;6.22;100.00;98892.31;4999662;28;20555;-82
2022/10/09 08:26:44;;;;;;;10.27;4.10;;;5.50;99.90;;;6.28;100.00;98887.38;4999162;28;20475;-82
2022/10/09 08:29:15;;;;;;;8.23;2.73;;;5.60;99.90;;;6.36;100.00;98884.09;5000956;28;20926;-82
2022/10/09 08:31:43;;;;;;;6.73;4.57;;;5.70;99.90;;;6.41;100.00;98882.72;5003559;28;20560;-82
2022/10/09 08:34:12;;;;;;;6.53;2.80;;;5.70;99.90;;;6.48;100.00;98881.22;5005015;28;20565;-83
2022/10/09 08:36:41;;;;;;;10.13;3.50;;;5.80;99.90;;;6.54;100.00;98867.66;5005443;28;20545;-82
2022/10/09 08:39:11;;;;;;;12.27;3.40;;;5.90;99.90;;;6.63;100.00;98878.16;5004207;28;20505;-83
2022/10/09 08:41:46;;;;;;;5.00;2.77;;;6.00;99.90;;;6.71;100.00;98873.88;5002870;28;20503;-83
2022/10/09 08:44:52;;;;;;;3.63;3.03;;;6.00;99.90;;;6.79;100.00;98871.41;5003864;28;20476;-82
2022/10/09 08:47:27;;;;;;;4.50;2.60;;;6.10;99.90;;;6.86;100.00;98867.28;5004263;28;20542;-83
2022/10/09 08:50:04;;;;;;;6.53;3.43;;;6.20;99.90;;;6.92;100.00;98871.06;5002519;28;20482;-82
2022/10/09 08:52:42;;;;;;;13.00;3.53;;;6.30;99.90;;;6.99;100.00;98870.34;5003924;28;20562;-82
2022/10/09 08:55:25;;;;;;;5.53;2.70;;;6.30;99.90;;;7.07;100.00;98867.03;5002521;28;20489;-82
2022/10/09 08:57:57;;;;;;;6.43;3.00;;;6.40;99.90;;;7.14;100.00;98864.69;5004485;28;20603;-81
2022/10/09 09:00:40;;;;;;;5.00;2.60;;;6.50;99.90;;;7.19;100.00;98860.66;5002832;28;20554;-82
2022/10/09 09:03:42;;;;;;;4.37;3.00;;;6.60;99.90;;;7.29;100.00;98864.03;5006609;28;21014;-82
2022/10/09 09:06:22;;;;;;;17.80;3.10;;;6.70;99.90;;;7.36;100.00;98857.28;5008148;28;20502;-82
2022/10/09 09:09:00;;;;;;;7.27;2.90;;;6.80;99.90;;;7.44;100.00;98862.56;5005359;28;20554;-82
2022/10/09 09:11:46;;;;;;;4.60;3.30;;;6.90;99.90;;;7.54;100.00;98859.91;5007727;28;20862;-82
2022/10/09 09:14:44;;;;;;;4.43;2.73;;;7.00;99.90;;;7.60;100.00;98856.72;5008839;28;20481;-82
2022/10/09 09:17:26;;;;;;;9.47;3.00;;;7.10;99.90;;;7.66;100.00;98853.53;5004690;28;20483;-82
2022/10/09 09:20:12;;;;;;;6.43;3.00;;;7.10;99.90;;;7.75;100.00;98857.84;5006913;28;20455;-82
2022/10/09 09:22:47;;;;;;;2.53;2.33;;;7.20;99.90;;;7.82;100.00;98845.84;5005801;28;20450;-82
2022/10/09 09:25:22;;;;;;;11.20;3.27;;;7.30;99.90;;;7.92;100.00;98836.16;5005665;28;20454;-82
2022/10/09 09:27:58;;;;;;;3.50;2.70;;;7.40;99.90;;;8.00;100.00;98840.63;5006858;28;20524;-81
2022/10/09 09:30:34;;;;;;;7.87;2.63;;;7.50;99.90;;;8.06;100.00;98834.81;5006819;28;21035;-82
2022/10/09 09:33:16;;;;;;;3.77;2.63;;;7.50;99.90;;;8.10;100.00;98839.56;5006781;28;20830;-83
2022/10/09 09:35:58;;;;;;;6.30;2.83;;;7.60;99.90;;;8.18;100.00;98838.00;5004950;28;21370;-83
2022/10/09 09:38:27;;;;;;;5.10;2.63;;;7.60;99.90;;;8.21;100.00;98841.13;5004486;28;20538;-82
2022/10/09 09:40:55;;;;;;;5.17;2.50;;;7.70;99.90;;;8.30;100.00;98829.81;5003496;28;20459;-83
2022/10/09 09:43:27;;;;;;;5.20;2.67;;;7.80;99.90;;;8.36;100.00;98826.59;5004516;28;20482;-82
2022/10/09 09:45:58;;;;;;;6.43;2.40;;;7.90;99.90;;;8.43;100.00;98827.63;5004919;28;20482;-82
2022/10/09 09:48:36;;;;;;;7.20;2.50;;;8.00;99.90;;;8.51;100.00;98824.22;5004997;28;20978;-82
2022/10/09 09:51:12;;;;;;;6.03;2.67;;;8.10;99.90;;;8.57;100.00;98816.59;5002607;28;20516;-83
2022/10/09 09:53:59;;;;;;;6.80;2.33;;;8.10;99.90;;;8.64;100.00;98811.59;5003914;28;20456;-82
2022/10/09 09:56:38;;;;;;;4.27;2.67;;;8.20;99.90;;;8.71;100.00;98806.59;5004332;28;21016;-82
2022/10/09 09:59:41;;;;;;;4.70;2.50;;;8.20;99.90;;;8.79;100.00;98799.59;5002479;28;20449;-82
2022/10/09 10:02:14;;;;;;;9.30;2.50;;;8.30;99.90;;;8.84;100.00;98792.13;5001339;28;20462;-82
2022/10/09 10:04:55;;;;;;;6.87;2.83;;;8.40;99.90;;;8.94;100.00;98789.38;5007725;28;20836;-82
2022/10/09 10:07:30;;;;;;;6.63;2.60;;;8.50;99.90;;;9.02;100.00;98789.41;5004870;28;20465;-82
2022/10/09 10:10:13;;;;;;;4.03;2.23;;;8.60;99.90;;;9.07;100.00;98787.13;5004194;28;20443;-82
2022/10/09 10:12:44;;;;;;;10.47;3.10;;;8.60;99.90;;;9.16;100.00;98785.38;5003267;28;20538;-83
2022/10/09 10:15:24;;;;;;;13.30;2.83;;;8.70;99.90;;;9.22;100.00;98779.50;5005594;28;20502;-83
2022/10/09 10:18:02;;;;;;;7.10;3.03;;;8.80;99.90;;;9.28;100.00;98779.69;5004391;28;20578;-83
2022/10/09 10:20:33;;;;;;;2.97;2.00;;;8.80;99.90;;;9.35;100.00;98774.63;5004544;28;20498;-83
2022/10/09 10:23:03;;;;;;;6.00;2.50;;;8.90;99.90;;;9.40;100.00;98770.59;5002791;28;20558;-82
2022/10/09 10:25:34;;;;;;;15.13;3.00;;;9.00;99.90;;;9.46;100.00;98761.28;5004085;28;21049;-83
2022/10/09 10:28:15;;;;;;;4.13;2.27;;;9.00;99.90;;;9.52;100.00;98764.06;5005029;28;20483;-84
2022/10/09 10:30:47;;;;;;;4.30;2.50;;;9.10;99.90;;;9.57;100.00;98759.19;5002310;28;20567;-83
2022/10/09 10:33:22;;;;;;;6.47;2.13;;;9.10;99.90;;;9.66;100.00;98751.31;5004703;28;20502;-83
2022/10/09 10:35:56;;;;;;;5.63;2.20;;;9.20;99.90;;;9.71;100.00;98749.06;5002838;28;20573;-83
2022/10/09 10:38:32;;;;;;;5.97;2.30;;;9.30;99.90;;;9.75;100.00;98755.59;5001237;28;20475;-81
2022/10/09 10:41:14;;;;;;;17.30;6.80;;;9.30;99.90;;;9.83;100.00;98743.31;5003473;28;20483;-83
2022/10/09 10:43:47;;;;;;;4.30;2.30;;;9.40;99.90;;;9.89;100.00;98740.03;5003069;28;20508;-83
2022/10/09 10:46:28;;;;;;;8.07;2.47;;;9.40;99.90;;;9.94;100.00;98734.31;5001840;28;20494;-83
2022/10/09 10:48:59;;;;;;;5.10;2.20;;;9.50;99.90;;;10.02;100.00;98731.72;5003515;28;20477;-82